Time;durP1;ratioP1;P1;durP2;ratioP2;P2;SDS_P1;SDS_P2;PMS_P1;PMS_P2;Temp;Humidity;BMP_temperature;BMP_pressure;BME280_temperature;BME280_humidity;BME280_pressure;Samples;Min_cycle;Max_cycle;Signal;HPM_P1;HPM_P2
2023/09/14 00:00:08;;;;;;;0.50;0.50;;;10.60;99.90;;;;;;5094353;28;20044;-81
2023/09/14 00:02:34;;;;;;;0.43;0.43;;;10.50;99.90;;;;;;5094208;28;20381;-81
2023/09/14 00:04:59;;;;;;;0.52;0.52;;;10.50;99.90;;;;;;5094110;28;20047;-81
2023/09/14 00:07:25;;;;;;;0.50;0.50;;;10.40;99.90;;;;;;5093131;28;20048;-81
2023/09/14 00:09:51;;;;;;;0.50;0.50;;;10.40;99.90;;;;;;5094163;28;20059;-81
2023/09/14 00:12:16;;;;;;;0.50;0.50;;;10.40;99.90;;;;;;5092895;28;20141;-81
2023/09/14 00:14:42;;;;;;;0.50;0.50;;;10.40;99.90;;;;;;5093586;28;20450;-81
2023/09/14 00:17:08;;;;;;;0.85;0.63;;;10.40;99.90;;;;;;5093888;28;20036;-81
2023/09/14 00:19:33;;;;;;;0.50;0.50;;;10.30;99.90;;;;;;5092804;28;20114;-81
2023/09/14 00:21:59;;;;;;;0.50;0.50;;;10.30;99.90;;;;;;5094072;28;20036;-81
2023/09/14 00:24:24;;;;;;;0.40;0.40;;;10.90;99.90;;;;;;5094083;28;20140;-81
2023/09/14 00:26:50;;;;;;;0.47;0.47;;;10.30;99.90;;;;;;5093843;28;20566;-81
2023/09/14 00:29:16;;;;;;;1.95;0.90;;;10.30;99.90;;;;;;5093675;28;20040;-81
2023/09/14 00:31:41;;;;;;;0.40;0.40;;;10.40;99.90;;;;;;5100060;28;20044;-81
2023/09/14 00:34:07;;;;;;;0.50;0.50;;;10.30;99.90;;;;;;5100362;28;20036;-81
2023/09/14 00:36:32;;;;;;;0.40;0.40;;;10.30;99.90;;;;;;5100883;28;20036;-81
2023/09/14 00:38:58;;;;;;;0.60;0.60;;;10.30;99.90;;;;;;5100480;28;20063;-81
2023/09/14 00:41:24;;;;;;;0.50;0.50;;;11.00;99.90;;;;;;5099329;28;20421;-81
2023/09/14 00:43:49;;;;;;;0.50;0.50;;;10.30;99.90;;;;;;5100238;28;20162;-81
2023/09/14 00:46:15;;;;;;;0.50;0.50;;;10.30;99.90;;;;;;5100785;28;20471;-81
2023/09/14 00:48:41;;;;;;;0.50;0.50;;;10.20;99.90;;;;;;5100697;28;20043;-81
2023/09/14 00:51:07;;;;;;;0.60;0.60;;;10.30;99.90;;;;;;5099394;28;20121;-81
2023/09/14 00:53:33;;;;;;;0.45;0.45;;;10.20;99.90;;;;;;5100255;28;20383;-81
2023/09/14 00:55:58;;;;;;;0.50;0.50;;;10.30;99.90;;;;;;5100298;28;20044;-81
2023/09/14 00:58:24;;;;;;;0.50;0.50;;;10.70;99.90;;;;;;5133481;27;20050;-81
2023/09/14 01:00:50;;;;;;;0.50;0.50;;;10.10;99.90;;;;;;5098998;28;20436;-81
2023/09/14 01:03:16;;;;;;;0.40;0.40;;;10.30;99.90;;;;;;5100332;28;20040;-81
2023/09/14 01:05:44;;;;;;;0.50;0.50;;;10.10;99.90;;;;;;5100216;28;20043;-81
2023/09/14 01:08:10;;;;;;;0.68;0.68;;;10.10;99.90;;;;;;5100030;28;22617;-81
2023/09/14 01:10:35;;;;;;;0.45;0.45;;;10.10;99.90;;;;;;5100379;28;20048;-81
2023/09/14 01:13:01;;;;;;;0.88;0.60;;;10.60;99.90;;;;;;5099816;28;20075;-81
2023/09/14 01:15:38;;;;;;;9.10;8.30;;;10.00;99.90;;;;;;5100041;28;20071;-81
2023/09/14 01:18:29;;;;;;;0.50;0.50;;;10.00;99.90;;;;;;5100117;28;20036;-81
2023/09/14 01:21:13;;;;;;;0.60;0.60;;;10.00;99.90;;;;;;5100055;28;20502;-81
2023/09/14 01:24:02;;;;;;;0.50;0.50;;;10.00;99.90;;;;;;5099965;28;20048;-81
2023/09/14 01:26:29;;;;;;;0.43;0.43;;;10.00;99.90;;;;;;5100678;28;20425;-81
2023/09/14 01:28:56;;;;;;;0.50;0.50;;;10.00;99.90;;;;;;5100072;28;20040;-81
2023/09/14 01:31:22;;;;;;;0.50;0.50;;;10.00;99.90;;;;;;5100074;28;20040;-81
2023/09/14 01:33:49;;;;;;;0.60;0.60;;;10.00;99.90;;;;;;5099940;28;20406;-81
2023/09/14 01:36:26;;;;;;;0.40;0.40;;;9.90;99.90;;;;;;5099839;28;20694;-82
2023/09/14 01:38:54;;;;;;;0.50;0.50;;;9.70;99.90;;;;;;5099891;28;20086;-81
2023/09/14 01:41:21;;;;;;;0.57;0.57;;;10.20;99.90;;;;;;5098752;28;20281;-81
2023/09/14 01:43:50;;;;;;;0.60;0.60;;;9.90;99.90;;;;;;5096116;28;20063;-81
2023/09/14 01:46:16;;;;;;;0.60;0.60;;;9.90;99.90;;;;;;5129202;27;20078;-82
2023/09/14 01:48:43;;;;;;;3.10;0.70;;;9.90;99.90;;;;;;5096246;28;20487;-81
2023/09/14 01:51:08;;;;;;;0.60;0.60;;;9.90;99.90;;;;;;5096810;28;20413;-81
2023/09/14 01:53:34;;;;;;;1.75;0.85;;;9.80;99.90;;;;;;5096809;28;20131;-82
2023/09/14 01:56:00;;;;;;;0.50;0.50;;;10.00;99.90;;;;;;5129490;27;20410;-81
2023/09/14 01:58:25;;;;;;;0.57;0.57;;;9.70;99.90;;;;;;5096427;28;20043;-81
2023/09/14 02:00:51;;;;;;;0.50;0.50;;;9.70;99.90;;;;;;5096341;28;20043;-81
2023/09/14 02:03:16;;;;;;;0.50;0.50;;;9.60;99.90;;;;;;5096365;28;20036;-81
2023/09/14 02:05:42;;;;;;;0.52;0.52;;;9.60;99.90;;;;;;5096678;28;20032;-81
2023/09/14 02:08:08;;;;;;;0.60;0.60;;;9.60;99.90;;;;;;5096062;28;20128;-81
2023/09/14 02:10:33;;;;;;;0.60;0.60;;;9.70;99.90;;;;;;5096216;28;20044;-81
2023/09/14 02:12:59;;;;;;;0.57;0.57;;;9.50;99.90;;;;;;5096116;28;20040;-81
2023/09/14 02:15:25;;;;;;;0.57;0.57;;;9.50;99.90;;;;;;5096012;28;20406;-81
2023/09/14 02:17:51;;;;;;;0.60;0.60;;;9.50;99.90;;;;;;5096054;28;20225;-81
2023/09/14 02:20:17;;;;;;;0.50;0.50;;;9.40;99.90;;;;;;5095969;28;20047;-81
2023/09/14 02:22:42;;;;;;;0.60;0.60;;;9.40;99.90;;;;;;5095807;28;20048;-81
2023/09/14 02:25:08;;;;;;;0.60;0.60;;;9.40;99.90;;;;;;5095815;28;20032;-81
2023/09/14 02:27:35;;;;;;;0.50;0.50;;;9.40;99.90;;;;;;5095496;28;20036;-81
2023/09/14 02:30:00;;;;;;;0.60;0.60;;;9.40;99.90;;;;;;5095755;28;20449;-81
2023/09/14 02:32:26;;;;;;;0.47;0.47;;;9.40;99.90;;;;;;5095695;28;20084;-81
2023/09/14 02:34:51;;;;;;;1.67;0.68;;;9.40;99.90;;;;;;5096013;28;20079;-81
2023/09/14 02:37:17;;;;;;;0.55;0.55;;;9.30;99.90;;;;;;5095761;28;20097;-81
2023/09/14 02:39:43;;;;;;;0.57;0.57;;;9.30;99.90;;;;;;5094747;28;20047;-81
2023/09/14 02:42:08;;;;;;;0.60;0.60;;;9.30;99.90;;;;;;5095517;28;20044;-81
2023/09/14 02:44:36;;;;;;;0.57;0.57;;;9.30;99.90;;;;;;5094657;28;20375;-81
2023/09/14 02:47:02;;;;;;;0.60;0.60;;;9.30;99.90;;;;;;5095351;28;20456;-81
2023/09/14 02:49:28;;;;;;;0.53;0.53;;;9.20;99.90;;;;;;5095492;28;20379;-81
2023/09/14 02:51:53;;;;;;;0.52;0.52;;;9.30;99.90;;;;;;5095398;28;20270;-81
2023/09/14 02:54:19;;;;;;;0.60;0.60;;;9.50;99.90;;;;;;5094934;28;20098;-81
2023/09/14 02:56:45;;;;;;;0.60;0.60;;;9.30;99.90;;;;;;5094304;28;20042;-81
2023/09/14 02:59:10;;;;;;;0.60;0.60;;;9.20;99.90;;;;;;5095076;28;20122;-81
2023/09/14 03:01:36;;;;;;;0.60;0.60;;;9.20;99.90;;;;;;5095232;28;20127;-81
2023/09/14 03:04:02;;;;;;;1.00;0.90;;;9.30;99.90;;;;;;5095427;28;20044;-81
2023/09/14 03:06:29;;;;;;;0.60;0.60;;;9.20;99.90;;;;;;5095628;28;20273;-81
2023/09/14 03:08:55;;;;;;;0.50;0.50;;;9.10;99.90;;;;;;5093600;28;20135;-81
2023/09/14 03:11:21;;;;;;;0.68;0.68;;;9.10;99.90;;;;;;5094944;28;20122;-81
2023/09/14 03:13:47;;;;;;;0.50;0.50;;;9.10;99.90;;;;;;5095076;28;20028;-82
2023/09/14 03:16:12;;;;;;;0.60;0.60;;;9.10;99.90;;;;;;5094938;28;20483;-81
2023/09/14 03:18:38;;;;;;;0.60;0.60;;;9.10;99.90;;;;;;5094877;28;20052;-81
2023/09/14 03:21:04;;;;;;;0.60;0.60;;;9.30;99.90;;;;;;5094785;28;20032;-81
2023/09/14 03:23:30;;;;;;;0.50;0.50;;;9.40;99.90;;;;;;5095108;28;20532;-81
2023/09/14 03:25:56;;;;;;;0.60;0.60;;;9.10;99.90;;;;;;5094691;28;20032;-81
2023/09/14 03:28:22;;;;;;;0.60;0.60;;;9.80;99.90;;;;;;5094748;28;20086;-81
2023/09/14 03:30:47;;;;;;;0.60;0.60;;;9.10;99.90;;;;;;5094632;28;20075;-81
2023/09/14 03:33:13;;;;;;;0.68;0.68;;;9.00;99.90;;;;;;5094527;28;20036;-81
2023/09/14 03:35:41;;;;;;;0.60;0.60;;;9.30;99.90;;;;;;5094462;28;20080;-81
2023/09/14 03:38:06;;;;;;;0.60;0.60;;;8.90;99.90;;;;;;5094246;28;20452;-81
2023/09/14 03:40:32;;;;;;;0.63;0.63;;;8.80;99.90;;;;;;5094820;28;20032;-81
2023/09/14 03:42:57;;;;;;;1.60;1.50;;;8.90;99.90;;;;;;5094435;28;20044;-81
2023/09/14 03:45:23;;;;;;;0.57;0.57;;;8.90;99.90;;;;;;5094416;28;20031;-81
2023/09/14 03:47:50;;;;;;;0.60;0.60;;;8.90;99.90;;;;;;5094308;28;20043;-81
2023/09/14 03:50:16;;;;;;;0.60;0.60;;;8.80;99.90;;;;;;5093265;28;20483;-81
2023/09/14 03:52:42;;;;;;;0.50;0.50;;;8.80;99.90;;;;;;5094324;28;20052;-81
2023/09/14 03:55:08;;;;;;;0.50;0.50;;;8.80;99.90;;;;;;5094222;28;20036;-81
2023/09/14 03:57:34;;;;;;;0.70;0.70;;;8.70;99.90;;;;;;5094170;28;20533;-81
2023/09/14 03:59:59;;;;;;;0.60;0.60;;;8.70;99.90;;;;;;5093191;28;20036;-81
2023/09/14 04:02:25;;;;;;;0.60;0.60;;;8.70;99.90;;;;;;5094171;28;20484;-81
2023/09/14 04:04:51;;;;;;;0.57;0.57;;;8.60;99.90;;;;;;5093397;28;20488;-81
2023/09/14 04:07:17;;;;;;;0.55;0.55;;;9.30;99.90;;;;;;5127500;27;20032;-81
2023/09/14 04:09:43;;;;;;;0.60;0.60;;;8.50;99.90;;;;;;5093859;28;20064;-81
2023/09/14 04:12:09;;;;;;;0.60;0.60;;;8.40;99.90;;;;;;5094111;28;20039;-81
2023/09/14 04:14:35;;;;;;;0.55;0.55;;;8.40;99.90;;;;;;5093906;28;20040;-81
2023/09/14 04:17:01;;;;;;;0.55;0.55;;;8.50;99.90;;;;;;5093528;28;20093;-81
2023/09/14 04:19:29;;;;;;;0.60;0.60;;;8.50;99.90;;;;;;5093942;28;20047;-81
2023/09/14 04:21:55;;;;;;;0.52;0.52;;;8.50;99.90;;;;;;5093835;28;20036;-81
2023/09/14 04:24:20;;;;;;;0.55;0.55;;;8.50;99.90;;;;;;5126664;27;20059;-81
2023/09/14 04:26:47;;;;;;;0.60;0.60;;;8.50;99.90;;;;;;5093885;28;20043;-81
2023/09/14 04:29:12;;;;;;;0.60;0.60;;;8.60;99.90;;;;;;5093610;28;20494;-81
2023/09/14 04:31:38;;;;;;;0.50;0.50;;;8.50;99.90;;;;;;5093556;28;20039;-82
2023/09/14 04:34:07;;;;;;;0.60;0.60;;;8.40;99.90;;;;;;5094058;28;20043;-81
2023/09/14 04:36:33;;;;;;;0.52;0.52;;;8.40;99.90;;;;;;5093138;28;20039;-81
2023/09/14 04:39:03;;;;;;;0.60;0.60;;;8.40;99.90;;;;;;5093798;28;20036;-81
2023/09/14 04:41:30;;;;;;;0.50;0.50;;;8.40;99.90;;;;;;5093583;28;20119;-81
2023/09/14 04:43:56;;;;;;;0.50;0.50;;;8.40;99.90;;;;;;5093657;28;20048;-81
2023/09/14 04:46:22;;;;;;;0.50;0.50;;;8.70;99.90;;;;;;5126289;28;20541;-81
2023/09/14 04:48:50;;;;;;;2.25;0.60;;;8.40;99.90;;;;;;5093338;28;20044;-82
2023/09/14 04:51:16;;;;;;;0.60;0.60;;;8.40;99.90;;;;;;5093532;28;20036;-81
2023/09/14 04:53:41;;;;;;;0.60;0.60;;;8.40;99.90;;;;;;5147070;27;20481;-84
2023/09/14 04:56:07;;;;;;;0.70;0.70;;;8.40;99.90;;;;;;5113958;28;20081;-81
2023/09/14 04:58:33;;;;;;;0.60;0.60;;;8.50;99.90;;;;;;5114203;28;20501;-78
2023/09/14 05:00:59;;;;;;;0.52;0.52;;;8.30;99.90;;;;;;5113671;28;20425;-77
2023/09/14 05:03:24;;;;;;;0.80;0.80;;;8.30;99.90;;;;;;5113743;28;20040;-77
2023/09/14 05:05:52;;;;;;;0.60;0.60;;;8.20;99.90;;;;;;5113721;28;20043;-75
2023/09/14 05:08:18;;;;;;;0.60;0.60;;;8.20;99.90;;;;;;5113810;28;20236;-77
2023/09/14 05:10:44;;;;;;;0.70;0.70;;;8.20;99.90;;;;;;5113762;28;20130;-77
2023/09/14 05:13:09;;;;;;;0.60;0.60;;;8.20;99.90;;;;;;5113594;28;20150;-76
2023/09/14 05:15:35;;;;;;;0.60;0.60;;;8.20;99.90;;;;;;5113570;28;20073;-77
2023/09/14 05:18:00;;;;;;;0.60;0.60;;;8.20;99.90;;;;;;5117795;28;20040;-76
2023/09/14 05:20:26;;;;;;;0.60;0.60;;;8.20;99.90;;;;;;5117706;28;20043;-78
2023/09/14 05:22:52;;;;;;;0.73;0.73;;;8.10;99.90;;;;;;5117477;28;20060;-78
2023/09/14 05:25:17;;;;;;;0.50;0.50;;;8.10;99.90;;;;;;5117423;28;20058;-78
2023/09/14 05:27:43;;;;;;;0.50;0.50;;;8.20;99.90;;;;;;5117519;28;20155;-77
2023/09/14 05:30:10;;;;;;;0.60;0.60;;;8.10;99.90;;;;;;5116306;28;20042;-78
2023/09/14 05:32:37;;;;;;;0.60;0.60;;;8.20;99.90;;;;;;5117327;28;20086;-78
2023/09/14 05:35:04;;;;;;;0.50;0.50;;;8.20;99.90;;;;;;5117108;28;20468;-78
2023/09/14 05:37:29;;;;;;;0.60;0.60;;;8.20;99.90;;;;;;5117164;28;20043;-76
2023/09/14 05:39:55;;;;;;;0.60;0.60;;;8.20;99.90;;;;;;5116956;28;20039;-77
2023/09/14 05:42:22;;;;;;;0.60;0.60;;;8.20;99.90;;;;;;5117045;28;20069;-77
2023/09/14 05:44:48;;;;;;;0.70;0.70;;;8.30;99.90;;;;;;5116799;28;20474;-78
2023/09/14 05:47:14;;;;;;;0.60;0.60;;;8.30;99.90;;;;;;5116738;28;20524;-78
2023/09/14 05:49:41;;;;;;;0.60;0.60;;;8.30;99.90;;;;;;5116797;28;20035;-78
2023/09/14 05:52:06;;;;;;;0.50;0.50;;;8.30;99.90;;;;;;5117029;28;20375;-76
2023/09/14 05:54:32;;;;;;;0.60;0.60;;;8.40;99.90;;;;;;5116798;28;20344;-78
2023/09/14 05:56:58;;;;;;;0.60;0.60;;;8.30;99.90;;;;;;5116880;28;20096;-77
2023/09/14 05:59:24;;;;;;;0.70;0.70;;;8.30;99.90;;;;;;5116710;28;20042;-77
2023/09/14 06:01:50;;;;;;;0.60;0.60;;;8.30;99.90;;;;;;5116715;28;20035;-77
2023/09/14 06:04:17;;;;;;;1.27;0.70;;;9.00;99.90;;;;;;5116669;28;20039;-77
2023/09/14 06:06:43;;;;;;;0.60;0.60;;;8.30;99.90;;;;;;5116735;28;20048;-79
2023/09/14 06:09:09;;;;;;;0.60;0.60;;;8.40;99.90;;;;;;5116449;28;20054;-80
2023/09/14 06:11:35;;;;;;;0.60;0.60;;;8.50;99.90;;;;;;5116947;28;20036;-78
2023/09/14 06:14:00;;;;;;;0.68;0.68;;;8.60;99.90;;;;;;5115111;28;20039;-78
2023/09/14 06:16:26;;;;;;;0.60;0.60;;;8.70;99.90;;;;;;5116415;28;20055;-79
2023/09/14 06:18:52;;;;;;;0.60;0.60;;;8.70;99.90;;;;;;5117074;28;20431;-80
2023/09/14 06:21:18;;;;;;;0.60;0.60;;;8.80;99.90;;;;;;5116668;28;20479;-80
2023/09/14 06:23:45;;;;;;;0.60;0.60;;;8.80;99.90;;;;;;5115370;28;20031;-82
2023/09/14 06:26:10;;;;;;;0.60;0.60;;;8.90;99.90;;;;;;5116339;28;20055;-80
2023/09/14 06:28:36;;;;;;;0.57;0.57;;;8.90;99.90;;;;;;5115517;28;20062;-83
2023/09/14 06:31:02;;;;;;;0.60;0.60;;;8.90;99.90;;;;;;5116145;28;20164;-79
2023/09/14 06:33:28;;;;;;;0.50;0.50;;;9.00;99.90;;;;;;5116580;28;20070;-82
2023/09/14 06:35:53;;;;;;;0.60;0.60;;;9.40;99.90;;;;;;5115949;28;20502;-80
2023/09/14 06:38:19;;;;;;;0.60;0.60;;;9.20;99.90;;;;;;5116006;28;20092;-80
2023/09/14 06:40:45;;;;;;;0.60;0.60;;;9.20;99.90;;;;;;5115928;28;20040;-78
2023/09/14 06:43:11;;;;;;;0.60;0.60;;;9.40;99.90;;;;;;5116136;28;20050;-80
2023/09/14 06:45:36;;;;;;;0.60;0.60;;;9.50;99.90;;;;;;5115902;28;20028;-79
2023/09/14 06:48:02;;;;;;;0.60;0.60;;;9.60;99.90;;;;;;5115917;28;20047;-77
2023/09/14 06:50:28;;;;;;;0.70;0.70;;;9.80;99.90;;;;;;5116093;28;20043;-76
2023/09/14 06:52:53;;;;;;;0.50;0.50;;;10.00;99.90;;;;;;5115895;28;20038;-76
2023/09/14 06:55:20;;;;;;;0.50;0.50;;;10.10;99.90;;;;;;5115516;28;20028;-76
2023/09/14 06:57:45;;;;;;;0.50;0.50;;;10.20;99.90;;;;;;5114690;28;20051;-77
2023/09/14 07:00:15;;;;;;;0.50;0.50;;;10.40;99.90;;;;;;5115714;28;20273;-77
2023/09/14 07:02:42;;;;;;;1.13;0.60;;;10.50;99.90;;;;;;5115608;28;20041;-76
2023/09/14 07:05:10;;;;;;;0.50;0.50;;;10.60;99.90;;;;;;5115405;28;20039;-78
2023/09/14 07:07:40;;;;;;;0.60;0.60;;;10.70;99.90;;;;;;5115879;28;20375;-76
2023/09/14 07:10:07;;;;;;;0.40;0.40;;;10.90;99.90;;;;;;5113691;28;20051;-77
2023/09/14 07:12:32;;;;;;;0.60;0.60;;;11.00;99.90;;;;;;5115148;28;20039;-77
2023/09/14 07:14:58;;;;;;;0.50;0.50;;;11.20;99.90;;;;;;5115619;28;20475;-76
2023/09/14 07:17:24;;;;;;;0.40;0.40;;;11.30;99.90;;;;;;5115621;28;20502;-76
2023/09/14 07:19:50;;;;;;;0.50;0.50;;;11.50;99.90;;;;;;5114863;28;20046;-75
2023/09/14 07:22:16;;;;;;;0.38;0.38;;;11.60;99.90;;;;;;5113959;28;20401;-76
2023/09/14 07:24:42;;;;;;;0.50;0.50;;;11.80;99.90;;;;;;5115196;28;20051;-80
2023/09/14 07:27:07;;;;;;;0.47;0.47;;;11.90;99.90;;;;;;5114207;28;20382;-77
2023/09/14 07:29:33;;;;;;;0.60;0.60;;;12.00;99.90;;;;;;5115512;28;20036;-77
2023/09/14 07:31:59;;;;;;;0.52;0.52;;;12.20;99.90;;;;;;5115427;28;20065;-78
2023/09/14 07:34:24;;;;;;;0.47;0.47;;;12.30;99.90;;;;;;5114946;28;20036;-78
2023/09/14 07:36:50;;;;;;;0.50;0.50;;;13.00;99.90;;;;;;5114001;28;20039;-78
2023/09/14 07:39:16;;;;;;;0.40;0.40;;;12.60;99.90;;;;;;5114369;28;20119;-78
2023/09/14 07:41:42;;;;;;;0.60;0.60;;;12.80;99.90;;;;;;5114398;28;20039;-78
2023/09/14 07:44:07;;;;;;;0.57;0.47;;;13.00;99.90;;;;;;5114378;28;20124;-79
2023/09/14 07:46:33;;;;;;;0.40;0.40;;;13.10;99.90;;;;;;5114683;28;20413;-81
2023/09/14 07:49:02;;;;;;;0.40;0.40;;;13.30;99.90;;;;;;5115396;28;20035;-84
2023/09/14 07:51:28;;;;;;;0.40;0.40;;;13.50;99.90;;;;;;5114844;28;20044;-80
2023/09/14 07:53:55;;;;;;;0.40;0.40;;;13.50;99.90;;;;;;5114414;28;20065;-80
2023/09/14 07:56:24;;;;;;;0.57;0.57;;;13.60;99.90;;;;;;5114760;28;20039;-78
2023/09/14 07:58:49;;;;;;;0.40;0.40;;;13.80;99.90;;;;;;5114524;28;20047;-76
2023/09/14 08:01:15;;;;;;;0.50;0.50;;;14.00;99.90;;;;;;5114510;28;20069;-76
2023/09/14 08:03:41;;;;;;;0.40;0.40;;;14.10;99.90;;;;;;5114418;28;20032;-77
2023/09/14 08:06:06;;;;;;;0.57;0.57;;;14.20;99.90;;;;;;5114660;28;20377;-79
2023/09/14 08:08:34;;;;;;;1.00;0.60;;;14.30;99.90;;;;;;5114202;28;20471;-77
2023/09/14 08:11:00;;;;;;;0.38;0.38;;;14.40;99.90;;;;;;5114080;28;20066;-78
2023/09/14 08:13:26;;;;;;;0.50;0.50;;;14.50;99.90;;;;;;5114797;28;20039;-79
2023/09/14 08:15:51;;;;;;;0.40;0.40;;;14.50;99.90;;;;;;5114037;28;20028;-79
2023/09/14 08:18:18;;;;;;;0.77;0.60;;;14.60;99.90;;;;;;5114288;28;20039;-79
2023/09/14 08:20:44;;;;;;;;;;;14.70;99.90;;;;;;5114674;28;20039;-78
2023/09/14 08:23:12;;;;;;;0.40;0.40;;;14.80;99.90;;;;;;5114261;28;19942;-78
2023/09/14 08:25:43;;;;;;;0.50;0.50;;;14.90;99.90;;;;;;5114075;28;20068;-76
2023/09/14 08:28:13;;;;;;;0.40;0.40;;;15.00;99.90;;;;;;5114216;28;20035;-78
2023/09/14 08:30:41;;;;;;;0.80;0.55;;;15.10;99.90;;;;;;5114048;28;20039;-76
2023/09/14 08:33:07;;;;;;;0.35;0.35;;;15.20;99.90;;;;;;5114415;28;20136;-77
2023/09/14 08:35:34;;;;;;;0.30;0.30;;;15.30;99.90;;;;;;5114160;28;20036;-77
2023/09/14 08:38:02;;;;;;;0.40;0.40;;;15.40;99.90;;;;;;5112795;28;20036;-76
2023/09/14 08:40:29;;;;;;;0.50;0.50;;;15.50;99.90;;;;;;5113874;28;20057;-76
2023/09/14 08:42:56;;;;;;;0.30;0.30;;;15.60;99.90;;;;;;5114018;28;20097;-78
2023/09/14 08:45:24;;;;;;;;;;;15.60;99.90;;;;;;5114329;28;20036;-76
2023/09/14 08:47:51;;;;;;;0.38;0.38;;;15.80;99.90;;;;;;5113964;28;20006;-76
2023/09/14 08:50:22;;;;;;;0.40;0.40;;;15.90;99.90;;;;;;5114442;28;20047;-81
2023/09/14 08:52:48;;;;;;;0.40;0.40;;;15.80;99.90;;;;;;5117489;28;20039;-78
2023/09/14 08:55:18;;;;;;;0.30;0.30;;;16.00;99.90;;;;;;5117722;28;20100;-75
2023/09/14 08:57:45;;;;;;;1.05;1.02;;;16.00;99.90;;;;;;5117185;28;20039;-76
2023/09/14 09:00:17;;;;;;;1.05;0.65;;;16.10;99.90;;;;;;5117903;28;20124;-74
2023/09/14 09:02:51;;;;;;;0.30;0.30;;;16.20;99.90;;;;;;5117840;28;20067;-75
2023/09/14 09:05:18;;;;;;;0.30;0.30;;;16.20;99.90;;;;;;5117692;28;20036;-76
2023/09/14 09:07:45;;;;;;;0.40;0.40;;;16.30;99.90;;;;;;5117548;28;20077;-75
2023/09/14 09:10:29;;;;;;;0.60;0.60;;;16.40;99.90;;;;;;5115230;28;20047;-81
2023/09/14 09:13:04;;;;;;;1.95;0.70;;;16.50;99.90;;;;;;5117257;28;20039;-75
2023/09/14 09:15:32;;;;;;;0.30;0.30;;;16.50;99.90;;;;;;5116840;28;20036;-74
2023/09/14 09:18:04;;;;;;;0.30;0.30;;;16.60;99.90;;;;;;5117179;28;20075;-76
2023/09/14 09:20:32;;;;;;;0.30;0.30;;;16.80;99.90;;;;;;5116845;28;20478;-75
2023/09/14 09:23:01;;;;;;;0.40;0.40;;;16.80;99.90;;;;;;5115852;28;20050;-76
2023/09/14 09:25:30;;;;;;;0.35;0.35;;;16.90;99.90;;;;;;5116827;28;20051;-76
2023/09/14 09:28:01;;;;;;;0.40;0.40;;;17.00;99.90;;;;;;5116937;28;20063;-75
2023/09/14 09:30:31;;;;;;;0.30;0.30;;;17.00;99.90;;;;;;5116346;28;20082;-75
2023/09/14 09:32:56;;;;;;;0.30;0.30;;;17.10;99.90;;;;;;5116752;28;20031;-75
2023/09/14 09:35:24;;;;;;;0.63;0.63;;;17.20;99.90;;;;;;5116816;28;20196;-76
2023/09/14 09:37:50;;;;;;;0.82;0.60;;;17.20;99.90;;;;;;5115676;28;20043;-76
2023/09/14 09:40:26;;;;;;;;;;;17.20;99.90;;;;;;5116857;27;20073;-76
2023/09/14 09:42:52;;;;;;;0.75;0.75;;;17.20;99.90;;;;;;5116625;28;19916;-80
2023/09/14 09:45:23;;;;;;;0.38;0.38;;;17.20;99.90;;;;;;5116264;28;20081;-78
2023/09/14 09:47:49;;;;;;;0.40;0.40;;;17.30;99.90;;;;;;5116578;28;20047;-78
2023/09/14 09:50:19;;;;;;;0.50;0.50;;;17.40;99.90;;;;;;5116723;28;20379;-78
2023/09/14 09:52:46;;;;;;;0.30;0.30;;;17.50;99.90;;;;;;5116666;28;20036;-78
2023/09/14 09:55:22;;;;;;;0.30;0.30;;;17.60;99.90;;;;;;5116252;28;20176;-76
2023/09/14 09:57:51;;;;;;;0.30;0.30;;;17.80;99.90;;;;;;5116460;28;20050;-74
2023/09/14 10:00:19;;;;;;;0.38;0.38;;;17.80;99.90;;;;;;5114214;28;20375;-75
2023/09/14 10:02:46;;;;;;;0.30;0.30;;;17.90;99.90;;;;;;5107668;28;20497;-75
2023/09/14 10:05:12;;;;;;;0.40;0.40;;;18.00;99.90;;;;;;5104063;28;20105;-75
2023/09/14 10:07:41;;;;;;;0.30;0.30;;;18.00;99.90;;;;;;5116201;28;20036;-75
2023/09/14 10:10:08;;;;;;;1.20;0.85;;;18.00;99.90;;;;;;5116184;28;20087;-76
2023/09/14 10:12:39;;;;;;;0.60;0.60;;;18.00;99.90;;;;;;5121684;27;20514;-75
2023/09/14 10:15:08;;;;;;;0.68;0.50;;;18.00;99.90;;;;;;5121004;27;20036;-76
2023/09/14 10:17:35;;;;;;;0.30;0.30;;;18.10;99.90;;;;;;5115977;28;20050;-76
2023/09/14 10:20:05;;;;;;;0.30;0.30;;;18.10;99.90;;;;;;5115156;28;20043;-83
2023/09/14 10:22:31;;;;;;;0.38;0.38;;;18.10;99.90;;;;;;5116413;28;20046;-76
2023/09/14 10:24:58;;;;;;;0.30;0.30;;;18.10;99.90;;;;;;5113435;28;20126;-76
2023/09/14 10:27:28;;;;;;;0.30;0.30;;;18.30;99.90;;;;;;5093646;28;20040;-74
2023/09/14 10:29:56;;;;;;;0.30;0.30;;;18.30;99.90;;;;;;5095849;28;20063;-72
2023/09/14 10:32:23;;;;;;;0.75;0.75;;;18.30;99.90;;;;;;5095721;28;20589;-74
2023/09/14 10:34:50;;;;;;;0.30;0.30;;;18.40;99.90;;;;;;5095526;28;20407;-74
2023/09/14 10:37:16;;;;;;;;;;;18.40;99.90;;;;;;5095844;28;20040;-74
2023/09/14 10:39:44;;;;;;;0.47;0.47;;;18.40;99.90;;;;;;5095305;28;20386;-73
2023/09/14 10:42:09;;;;;;;0.30;0.30;;;18.30;99.90;;;;;;5095914;28;20058;-75
2023/09/14 10:44:35;;;;;;;0.63;0.43;;;18.30;99.90;;;;;;5095591;28;20127;-75
2023/09/14 10:47:03;;;;;;;0.63;0.63;;;18.40;99.90;;;;;;5095719;28;20468;-76
2023/09/14 10:49:33;;;;;;;4.50;0.50;;;18.50;99.90;;;;;;5094433;28;20048;-75
2023/09/14 10:52:00;;;;;;;0.30;0.30;;;18.60;99.90;;;;;;5095323;28;20067;-78
2023/09/14 10:54:27;;;;;;;0.47;0.47;;;18.80;99.90;;;;;;5095243;28;20047;-76
2023/09/14 10:57:00;;;;;;;0.40;0.40;;;18.80;99.90;;;;;;5095594;28;20043;-75
2023/09/14 11:00:01;;;;;;;0.30;0.30;;;18.80;99.90;;;;;;5095276;28;20032;-75
2023/09/14 11:02:39;;;;;;;0.20;0.20;;;19.00;99.90;;;;;;5095137;28;20114;-74
2023/09/14 11:05:13;;;;;;;0.30;0.30;;;19.10;99.90;;;;;;5095512;28;20048;-76
2023/09/14 11:08:00;;;;;;;0.20;0.20;;;19.20;99.90;;;;;;5095025;28;20032;-76
2023/09/14 11:10:27;;;;;;;0.30;0.30;;;19.30;99.90;;;;;;5095074;28;20040;-76
2023/09/14 11:13:18;;;;;;;0.30;0.30;;;19.20;99.90;;;;;;5095031;28;20040;-73
2023/09/14 11:15:46;;;;;;;0.30;0.30;;;19.20;99.90;;;;;;5094696;28;20047;-75
2023/09/14 11:18:16;;;;;;;0.45;0.45;;;19.10;99.90;;;;;;5094785;28;20036;-75
2023/09/14 11:20:44;;;;;;;0.35;0.35;;;19.00;99.90;;;;;;5106045;28;20028;-75
2023/09/14 11:23:10;;;;;;;0.30;0.30;;;18.90;99.90;;;;;;5115290;28;20494;-78
2023/09/14 11:25:38;;;;;;;0.30;0.30;;;18.80;99.90;;;;;;5114956;28;20373;-77
2023/09/14 11:28:06;;;;;;;0.60;0.60;;;18.70;99.90;;;;;;5115015;28;20478;-76
2023/09/14 11:30:32;;;;;;;0.40;0.40;;;18.60;99.90;;;;;;5114939;28;20426;-74
2023/09/14 11:33:04;;;;;;;0.30;0.30;;;18.50;99.90;;;;;;5114969;28;20052;-74
2023/09/14 11:35:50;;;;;;;0.30;0.30;;;18.40;99.90;;;;;;5114541;28;20038;-75
2023/09/14 11:38:18;;;;;;;0.85;0.40;;;18.40;99.90;;;;;;5113832;28;20047;-77
2023/09/14 11:40:44;;;;;;;0.30;0.30;;;18.40;99.90;;;;;;5114802;28;20379;-80
2023/09/14 11:43:21;;;;;;;0.40;0.40;;;18.40;99.90;;;;;;5114029;28;20405;-76
2023/09/14 11:46:00;;;;;;;1.08;0.60;;;18.60;99.90;;;;;;5114836;28;20044;-76
2023/09/14 11:48:34;;;;;;;0.30;0.30;;;18.80;99.90;;;;;;5114484;28;20407;-76
2023/09/14 11:51:04;;;;;;;0.30;0.30;;;18.80;99.90;;;;;;5114644;28;20061;-77
2023/09/14 11:53:37;;;;;;;0.30;0.30;;;18.80;99.90;;;;;;5114548;28;20031;-74
2023/09/14 11:56:03;;;;;;;0.30;0.30;;;18.70;99.90;;;;;;5114798;28;20042;-72
2023/09/14 11:58:34;;;;;;;0.30;0.30;;;18.60;99.90;;;;;;5114514;28;20039;-73
2023/09/14 12:01:00;;;;;;;0.30;0.30;;;18.60;99.90;;;;;;5114405;28;20039;-73
2023/09/14 12:03:27;;;;;;;0.30;0.30;;;18.80;99.90;;;;;;5114409;28;20486;-76
2023/09/14 12:05:55;;;;;;;0.30;0.30;;;19.00;99.90;;;;;;5114270;28;20047;-74
2023/09/14 12:08:21;;;;;;;0.30;0.30;;;19.10;99.90;;;;;;5113978;28;20395;-74
2023/09/14 12:10:52;;;;;;;0.47;0.47;;;19.40;99.90;;;;;;5114519;28;20044;-74
2023/09/14 12:13:18;;;;;;;0.40;0.40;;;19.40;99.90;;;;;;5114218;28;20124;-74
2023/09/14 12:15:45;;;;;;;0.30;0.30;;;19.40;99.90;;;;;;5114114;28;20070;-73
2023/09/14 12:18:12;;;;;;;0.25;0.25;;;19.40;99.90;;;;;;5114434;28;20425;-73
2023/09/14 12:20:43;;;;;;;0.60;0.60;;;19.50;99.90;;;;;;5114356;28;20046;-73
2023/09/14 12:23:11;;;;;;;0.40;0.40;;;19.50;99.90;;;;;;5114328;28;20047;-75
2023/09/14 12:25:38;;;;;;;0.30;0.30;;;19.60;99.90;;;;;;5113200;28;20112;-74
2023/09/14 12:28:07;;;;;;;0.30;0.30;;;19.70;99.90;;;;;;5113228;28;20048;-76
2023/09/14 12:30:34;;;;;;;0.82;0.82;;;19.70;99.90;;;;;;5112232;28;20031;-76
2023/09/14 12:33:02;;;;;;;0.55;0.52;;;19.50;99.90;;;;;;5113643;28;20048;-76
2023/09/14 12:35:29;;;;;;;0.30;0.30;;;19.40;99.90;;;;;;5113483;28;20090;-78
2023/09/14 12:38:03;;;;;;;0.30;0.30;;;19.20;99.90;;;;;;5113694;28;20085;-76
2023/09/14 12:40:37;;;;;;;0.73;0.65;;;19.10;99.90;;;;;;5113411;28;20046;-77
2023/09/14 12:43:04;;;;;;;0.30;0.30;;;18.90;99.90;;;;;;5113833;28;20051;-77
2023/09/14 12:45:33;;;;;;;;;;;18.80;99.90;;;;;;5114874;28;20036;-78
2023/09/14 12:48:03;;;;;;;0.30;0.30;;;18.80;99.90;;;;;;5113949;28;20014;-74
2023/09/14 12:50:29;;;;;;;0.40;0.40;;;18.60;99.90;;;;;;5113896;28;20131;-77
2023/09/14 12:52:57;;;;;;;;;;;18.50;99.90;;;;;;5114005;28;20039;-76